Time;durP1;ratioP1;P1;durP2;ratioP2;P2;SDS_P1;SDS_P2;PMS_P1;PMS_P2;Temp;Humidity;BMP_temperature;BMP_pressure;BME280_temperature;BME280_humidity;BME280_pressure;Samples;Min_cycle;Max_cycle;Signal;HPM_P1;HPM_P2
2022/11/24 00:01:07;;;;;;;34.92;19.83;;;;;;;8.64;92.11;98675.53;5031820;28;20476;-37
2022/11/24 00:03:33;;;;;;;33.90;19.15;;;;;;;8.57;91.22;98676.41;5031659;28;20109;-37
2022/11/24 00:06:10;;;;;;;33.55;19.08;;;;;;;8.52;91.46;98683.38;5031811;28;20022;-37
2022/11/24 00:08:37;;;;;;;32.88;19.10;;;;;;;8.61;91.78;98688.19;5031685;28;20068;-37
2022/11/24 00:11:11;;;;;;;32.05;19.25;;;;;;;8.66;91.42;98686.72;5031840;28;20033;-37
2022/11/24 00:13:40;;;;;;;30.80;18.83;;;;;;;8.51;92.11;98690.53;5031556;28;20033;-37
2022/11/24 00:16:09;;;;;;;33.10;19.33;;;;;;;8.60;90.97;98691.06;5031729;28;20060;-37
2022/11/24 00:18:34;;;;;;;35.70;18.00;;;;;;;8.66;91.30;98692.03;5031520;28;20485;-37
2022/11/24 00:21:00;;;;;;;30.58;18.58;;;;;;;8.77;90.52;98688.69;5031587;28;20025;-37
2022/11/24 00:23:25;;;;;;;35.97;19.23;;;;;;;8.50;91.84;98686.25;5031372;28;20056;-36
2022/11/24 00:25:51;;;;;;;33.95;20.45;;;;;;;8.66;92.50;98700.00;5031532;28;20034;-36
2022/11/24 00:28:16;;;;;;;37.28;21.05;;;;;;;8.53;92.19;98692.94;5031460;28;20029;-36
2022/11/24 00:30:41;;;;;;;35.97;20.27;;;;;;;8.36;93.06;98680.19;5031740;28;20022;-36
2022/11/24 00:33:07;;;;;;;36.35;20.13;;;;;;;8.35;92.66;98678.56;5031245;28;20552;-36
2022/11/24 00:35:32;;;;;;;39.03;21.45;;;;;;;8.17;93.97;98684.59;5031372;28;20026;-36
2022/11/24 00:37:57;;;;;;;39.22;21.92;;;;;;;8.20;93.23;98670.09;5031444;28;20036;-36
2022/11/24 00:40:23;;;;;;;38.92;21.23;;;;;;;8.15;93.94;98684.00;5031057;28;20114;-36
2022/11/24 00:42:48;;;;;;;37.03;21.52;;;;;;;8.18;92.81;98677.47;5031197;28;20020;-37
2022/11/24 00:45:14;;;;;;;37.35;21.02;;;;;;;8.26;92.47;98674.53;5031058;28;20021;-37
2022/11/24 00:47:39;;;;;;;38.25;21.88;;;;;;;8.06;92.92;98682.63;5031329;28;20107;-37
2022/11/24 00:50:05;;;;;;;36.33;22.20;;;;;;;7.97;93.40;98676.75;5030984;28;20021;-37
2022/11/24 00:52:31;;;;;;;37.92;22.17;;;;;;;7.97;93.33;98675.94;5030527;28;20087;-37
2022/11/24 00:54:56;;;;;;;36.72;19.65;;;;;;;7.94;93.69;98684.31;5030354;28;20036;-37
2022/11/24 00:57:22;;;;;;;36.85;21.67;;;;;;;7.86;93.78;98682.72;5030523;28;20048;-36
2022/11/24 00:59:47;;;;;;;38.40;23.17;;;;;;;7.97;93.70;98681.25;5030913;28;20028;-36
2022/11/24 01:02:12;;;;;;;39.10;22.83;;;;;;;7.83;93.79;98688.47;5030772;28;20022;-37
2022/11/24 01:04:38;;;;;;;38.72;20.70;;;;;;;7.89;93.70;98686.81;5030743;28;20021;-37
2022/11/24 01:07:04;;;;;;;34.40;20.17;;;;;;;7.75;93.58;98692.16;5030830;28;20032;-36
2022/11/24 01:09:29;;;;;;;33.00;19.52;;;;;;;7.84;93.50;98692.72;5030920;28;20428;-37
2022/11/24 01:12:01;;;;;;;34.97;19.98;;;;;;;8.13;91.85;98694.00;5030858;28;20037;-37
2022/11/24 01:14:27;;;;;;;30.80;19.15;;;;;;;8.16;92.05;98698.88;5030590;28;20127;-37
2022/11/24 01:16:53;;;;;;;34.83;20.38;;;;;;;8.08;92.09;98693.03;5030753;28;20568;-36
2022/11/24 01:19:19;;;;;;;32.58;18.42;;;;;;;7.94;92.06;98689.59;5030568;28;20037;-36
2022/11/24 01:21:45;;;;;;;37.33;19.02;;;;;;;7.70;92.54;98683.22;5030678;28;20112;-36
2022/11/24 01:24:11;;;;;;;29.30;18.67;;;;;;;7.65;93.69;98699.72;5030264;28;20116;-37
2022/11/24 01:26:37;;;;;;;32.03;19.08;;;;;;;7.59;92.52;98696.06;5030241;28;20033;-38
2022/11/24 01:29:03;;;;;;;30.70;18.67;;;;;;;7.56;92.67;98706.31;5030222;28;20037;-37
2022/11/24 01:31:28;;;;;;;34.30;19.85;;;;;;;7.74;92.27;98701.13;5030392;28;20017;-37
2022/11/24 01:33:54;;;;;;;29.10;17.80;;;;;;;7.74;91.57;98697.66;5030314;28;20029;-36
2022/11/24 01:36:20;;;;;;;32.53;18.33;;;;;;;7.52;92.56;98705.91;5030502;28;20026;-37
2022/11/24 01:38:46;;;;;;;36.92;20.52;;;;;;;7.13;93.62;98712.09;5030350;28;20485;-37
2022/11/24 01:41:14;;;;;;;36.75;21.13;;;;;;;7.52;92.08;98707.72;5030337;28;20031;-37
2022/11/24 01:43:44;;;;;;;40.92;21.00;;;;;;;7.54;92.56;98716.25;5030288;28;20026;-37
2022/11/24 01:46:18;;;;;;;35.47;20.33;;;;;;;7.45;91.35;98705.09;5030453;28;20045;-36
2022/11/24 01:48:51;;;;;;;34.40;20.02;;;;;;;7.43;91.92;98710.59;5030091;28;20108;-36
2022/11/24 01:51:22;;;;;;;32.10;18.27;;;;;;;7.34;92.63;98713.69;5030374;28;20117;-37
2022/11/24 01:54:15;;;;;;;31.88;19.08;;;;;;;7.34;91.93;98714.50;5030122;28;20036;-36
2022/11/24 01:56:45;;;;;;;33.75;19.40;;;;;;;7.27;92.24;98713.69;5030289;28;20026;-37
2022/11/24 01:59:12;;;;;;;;;;;;;;;7.24;91.04;98703.53;5030866;28;20032;-37
2022/11/24 02:01:38;;;;;;;33.58;17.75;;;;;;;7.36;91.27;98715.09;5031009;28;19988;-36
2022/11/24 02:04:10;;;;;;;32.00;18.75;;;;;;;7.46;91.04;98712.00;5031127;28;20056;-36
2022/11/24 02:06:39;;;;;;;33.30;17.67;;;;;;;7.35;91.69;98710.00;5030542;28;20045;-37
2022/11/24 02:09:29;;;;;;;30.83;17.98;;;;;;;7.24;92.36;98714.13;5032567;28;20026;-36
2022/11/24 02:11:57;;;;;;;30.23;18.58;;;;;;;7.28;92.04;98711.88;5034651;28;20041;-35
2022/11/24 02:14:23;;;;;;;33.47;17.23;;;;;;;7.16;92.82;98714.31;5034493;28;20053;-36
2022/11/24 02:16:50;;;;;;;26.08;16.30;;;;;;;7.26;94.47;98708.63;5034298;28;20469;-37
2022/11/24 02:19:40;;;;;;;31.55;16.65;;;;;;;7.33;93.64;98712.03;5034438;28;20041;-36
2022/11/24 02:22:34;;;;;;;30.92;16.17;;;;;;;7.40;92.94;98713.66;5034068;28;20104;-36
2022/11/24 02:25:12;;;;;;;25.30;15.20;;;;;;;7.59;92.34;98706.66;5033950;28;20052;-37
2022/11/24 02:27:38;;;;;;;24.13;15.35;;;;;;;7.52;92.23;98708.56;5034210;28;20078;-37
2022/11/24 02:30:04;;;;;;;28.30;15.38;;;;;;;7.56;92.11;98699.16;5033214;28;20663;-37
2022/11/24 02:32:32;;;;;;;23.77;15.43;;;;;;;7.45;92.94;98699.81;5034112;28;20097;-37
2022/11/24 02:35:02;;;;;;;25.25;15.05;;;;;;;7.36;93.71;98703.69;5034074;28;20036;-37
2022/11/24 02:37:28;;;;;;;26.85;15.00;;;;;;;7.60;91.92;98694.28;5034032;28;20033;-37
2022/11/24 02:39:53;;;;;;;24.38;14.50;;;;;;;7.45;92.44;98702.47;5034172;28;20025;-37
2022/11/24 02:42:19;;;;;;;22.70;14.35;;;;;;;7.28;92.98;98702.09;5034124;28;20104;-37
2022/11/24 02:44:49;;;;;;;24.48;14.65;;;;;;;7.47;92.36;98707.56;5034100;28;20101;-37
2022/11/24 02:47:14;;;;;;;22.83;14.23;;;;;;;7.48;91.58;98709.97;5034121;28;20029;-38
2022/11/24 02:49:40;;;;;;;23.52;14.45;;;;;;;7.39;91.79;98701.47;5033954;28;20075;-37
2022/11/24 02:52:05;;;;;;;23.17;14.60;;;;;;;7.28;92.59;98704.75;5033660;28;20060;-37
2022/11/24 02:54:31;;;;;;;22.20;14.75;;;;;;;7.16;92.79;98703.72;5033901;28;20121;-36
2022/11/24 02:56:57;;;;;;;22.88;13.98;;;;;;;7.14;92.08;98706.59;5033850;28;20154;-36
2022/11/24 02:59:22;;;;;;;23.83;14.98;;;;;;;7.15;92.19;98699.47;5033186;28;20029;-37
2022/11/24 03:01:47;;;;;;;23.15;14.77;;;;;;;7.23;91.36;98704.53;5033851;28;20453;-37
2022/11/24 03:04:13;;;;;;;23.65;15.00;;;;;;;7.14;92.38;98708.41;5033339;28;20511;-36
2022/11/24 03:06:39;;;;;;;22.45;13.98;;;;;;;7.05;92.18;98705.19;5033604;28;20025;-37
2022/11/24 03:09:04;;;;;;;22.17;14.50;;;;;;;6.95;92.59;98715.38;5033821;28;20021;-37
2022/11/24 03:11:30;;;;;;;21.17;13.98;;;;;;;7.20;91.34;98712.91;5033372;28;20025;-37
2022/11/24 03:13:55;;;;;;;24.40;13.80;;;;;;;7.16;91.61;98714.31;5032943;28;20021;-37
2022/11/24 03:16:21;;;;;;;22.70;12.60;;;;;;;7.17;90.80;98719.41;5033171;28;20360;-37
2022/11/24 03:18:47;;;;;;;23.65;14.40;;;;;;;7.03;91.26;98717.81;5033338;28;20017;-37
2022/11/24 03:21:13;;;;;;;21.55;13.57;;;;;;;7.04;91.16;98724.72;5032884;28;20401;-37
2022/11/24 03:23:38;;;;;;;25.10;15.20;;;;;;;7.04;91.51;98725.56;5033274;28;20045;-37
2022/11/24 03:26:13;;;;;;;22.88;14.23;;;;;;;6.82;91.66;98732.06;5033484;28;20055;-37
2022/11/24 03:28:39;;;;;;;24.10;13.35;;;;;;;6.81;91.76;98730.44;5033498;28;20110;-37
2022/11/24 03:31:05;;;;;;;26.15;13.88;;;;;;;6.91;90.96;98740.59;5033008;28;20381;-37
2022/11/24 03:33:30;;;;;;;26.05;14.30;;;;;;;6.97;90.51;98732.69;5032940;28;20457;-37
2022/11/24 03:35:56;;;;;;;21.02;11.95;;;;;;;6.82;91.36;98732.88;5032962;28;20087;-37
2022/11/24 03:38:22;;;;;;;21.77;12.68;;;;;;;6.92;91.18;98740.41;5032405;28;20032;-37
2022/11/24 03:40:47;;;;;;;19.13;12.07;;;;;;;6.78;92.03;98741.44;5032766;28;20029;-37
2022/11/24 03:43:13;;;;;;;18.83;12.15;;;;;;;6.80;91.98;98744.69;5033299;28;20100;-37
2022/11/24 03:45:39;;;;;;;20.27;11.98;;;;;;;6.91;91.03;98738.78;5032613;28;20504;-37
2022/11/24 03:48:05;;;;;;;21.67;11.98;;;;;;;6.79;90.74;98732.47;5032780;28;20026;-37
2022/11/24 03:50:30;;;;;;;19.30;11.23;;;;;;;6.79;90.61;98743.03;5039913;28;20013;-37
2022/11/24 03:52:56;;;;;;;16.20;10.90;;;;;;;6.87;89.88;98745.47;5044934;28;20021;-37
2022/11/24 03:55:21;;;;;;;18.67;10.85;;;;;;;6.80;89.16;98740.19;5031031;28;20351;-38
2022/11/24 03:57:47;;;;;;;18.10;11.05;;;;;;;6.75;89.99;98742.63;5034568;28;20083;-38
2022/11/24 04:00:13;;;;;;;17.85;11.00;;;;;;;6.62;89.83;98740.78;5031339;28;20021;-37
2022/11/24 04:02:38;;;;;;;19.02;10.75;;;;;;;6.68;90.45;98746.28;5033612;28;20031;-37
2022/11/24 04:05:04;;;;;;;15.63;10.70;;;;;;;6.53;91.05;98747.31;5033140;28;20500;-36
2022/11/24 04:07:29;;;;;;;17.48;11.07;;;;;;;6.45;90.56;98752.75;5032371;28;20025;-37
2022/11/24 04:09:55;;;;;;;27.10;15.40;;;;;;;6.54;90.64;98741.00;5036044;28;20610;-37
2022/11/24 04:15:05;;;;;;;33.05;18.55;;;;;;;6.35;91.74;98750.50;5051726;28;20059;-37
2022/11/24 04:17:30;;;;;;;63.88;34.33;;;;;;;6.34;91.08;98754.19;5051775;28;20049;-37
2022/11/24 04:19:56;;;;;;;72.00;38.25;;;;;;;6.43;91.17;98757.44;5051823;28;20021;-37
2022/11/24 04:22:21;;;;;;;103.20;49.80;;;;;;;6.48;90.17;98756.84;5051835;28;20028;-37
2022/11/24 04:24:46;;;;;;;42.20;22.23;;;;;;;6.44;90.82;98759.09;5044672;28;20051;-36
2022/11/24 04:27:12;;;;;;;23.30;12.05;;;;;;;6.39;91.96;98757.03;5032003;28;20102;-37
2022/11/24 04:29:37;;;;;;;16.25;10.80;;;;;;;6.56;91.08;98748.72;5031914;28;20032;-37
2022/11/24 04:32:03;;;;;;;17.13;10.15;;;;;;;6.58;90.32;98758.06;5031166;28;20017;-37
2022/11/24 04:34:28;;;;;;;16.42;9.98;;;;;;;6.52;91.08;98745.66;5032073;28;20584;-37
2022/11/24 04:36:54;;;;;;;15.35;9.25;;;;;;;6.45;90.78;98764.16;5031223;28;20060;-36
2022/11/24 04:39:19;;;;;;;15.90;9.10;;;;;;;6.70;90.22;98754.84;5030231;28;20025;-38
2022/11/24 04:41:46;;;;;;;15.70;9.30;;;;;;;6.71;90.17;98757.28;5030479;28;20026;-37
2022/11/24 04:44:11;;;;;;;17.63;9.80;;;;;;;6.58;90.00;98773.13;5031537;28;20022;-36
2022/11/24 04:46:37;;;;;;;14.43;9.63;;;;;;;6.70;90.06;98762.75;5030835;28;20052;-37
2022/11/24 04:49:02;;;;;;;14.93;9.95;;;;;;;6.70;90.21;98770.69;5030917;28;20128;-36
2022/11/24 04:51:28;;;;;;;15.20;9.75;;;;;;;6.65;91.24;98761.53;5030904;28;20024;-36
2022/11/24 04:53:53;;;;;;;33.85;20.73;;;;;;;6.56;92.06;98767.22;5031591;28;20044;-36
2022/11/24 04:56:18;;;;;;;71.72;35.65;;;;;;;6.63;91.36;98779.44;5030345;28;20382;-36
2022/11/24 04:58:47;;;;;;;23.08;12.80;;;;;;;6.59;92.01;98778.22;5031075;28;20021;-36
2022/11/24 05:01:13;;;;;;;16.63;10.40;;;;;;;6.56;91.59;98777.81;5030783;28;20531;-36
2022/11/24 05:03:39;;;;;;;19.75;11.23;;;;;;;6.48;90.91;98786.75;5031288;28;20022;-36
2022/11/24 05:06:05;;;;;;;25.63;12.73;;;;;;;6.28;91.09;98781.38;5030690;28;20054;-36
2022/11/24 05:08:30;;;;;;;30.27;16.83;;;;;;;6.15;91.57;98773.41;5030395;28;20029;-37
2022/11/24 05:10:56;;;;;;;20.20;12.27;;;;;;;6.27;91.53;98787.69;5030968;28;20036;-37
2022/11/24 05:13:21;;;;;;;23.33;11.48;;;;;;;6.37;91.71;98782.84;5031142;28;20658;-37
2022/11/24 05:15:47;;;;;;;23.42;12.70;;;;;;;6.20;91.43;98786.84;5031221;28;20397;-37
2022/11/24 05:18:15;;;;;;;18.75;10.95;;;;;;;6.12;91.82;98787.84;5031113;28;20021;-36
2022/11/24 05:20:40;;;;;;;22.45;12.10;;;;;;;6.23;93.84;98792.56;5031000;28;20034;-36
2022/11/24 05:23:07;;;;;;;24.83;14.18;;;;;;;6.33;93.50;98799.31;5030758;28;20139;-36
2022/11/24 05:25:33;;;;;;;18.98;11.32;;;;;;;6.30;92.51;98797.03;5031156;28;20022;-36
2022/11/24 05:28:04;;;;;;;20.80;10.90;;;;;;;6.51;91.42;98798.72;5031054;28;20097;-36
2022/11/24 05:30:30;;;;;;;18.05;10.55;;;;;;;6.82;89.02;98790.25;5031016;28;20033;-37
2022/11/24 05:32:56;;;;;;;18.90;11.18;;;;;;;6.62;89.68;98801.59;5031159;28;20389;-37
2022/11/24 05:35:22;;;;;;;19.38;10.10;;;;;;;6.38;89.67;98802.97;5030653;28;20037;-38
2022/11/24 05:37:47;;;;;;;16.00;10.18;;;;;;;6.17;90.11;98800.44;5030403;28;20044;-37
2022/11/24 05:40:13;;;;;;;19.98;10.57;;;;;;;5.99;91.46;98801.81;5030641;28;20021;-37
2022/11/24 05:42:39;;;;;;;23.92;11.07;;;;;;;6.14;91.57;98803.50;5031263;28;20104;-37
2022/11/24 05:45:05;;;;;;;30.73;15.05;;;;;;;6.34;94.34;98814.13;5034380;28;20030;-37
2022/11/24 05:47:31;;;;;;;32.55;14.18;;;;;;;6.38;92.01;98812.75;5034426;28;20025;-37
2022/11/24 05:49:56;;;;;;;25.35;13.10;;;;;;;6.58;90.70;98799.56;5034426;28;20480;-37
2022/11/24 05:52:22;;;;;;;27.92;12.23;;;;;;;6.73;87.43;98813.41;5034593;28;20025;-37
2022/11/24 05:54:47;;;;;;;25.77;11.00;;;;;;;6.72;89.06;98822.38;5033922;28;20056;-37
2022/11/24 05:57:13;;;;;;;23.88;11.70;;;;;;;6.77;88.67;98821.78;5033418;28;20076;-37
2022/11/24 05:59:39;;;;;;;25.80;12.18;;;;;;;7.28;88.11;98823.03;5033591;28;20096;-37
2022/11/24 06:02:04;;;;;;;19.00;11.73;;;;;;;7.70;84.52;98810.34;5033351;28;20026;-36
2022/11/24 06:04:30;;;;;;;23.27;11.82;;;;;;;7.47;85.19;98816.09;5033469;28;20096;-36
2022/11/24 06:06:55;;;;;;;21.08;12.18;;;;;;;7.46;85.35;98827.69;5033131;28;20108;-37
2022/11/24 06:09:21;;;;;;;27.58;12.77;;;;;;;7.61;83.36;98828.28;5033754;28;20030;-36
2022/11/24 06:11:47;;;;;;;23.13;12.57;;;;;;;8.71;80.05;98832.78;5033559;28;20470;-37
2022/11/24 06:14:13;;;;;;;31.15;15.85;;;;;;;8.43;81.97;98843.75;5033203;28;20029;-37
2022/11/24 06:16:38;;;;;;;34.88;17.75;;;;;;;8.43;79.42;98839.25;5033049;28;20448;-37
2022/11/24 06:19:04;;;;;;;24.88;12.80;;;;;;;8.29;80.50;98838.47;5032576;28;20095;-36
2022/11/24 06:21:30;;;;;;;24.50;12.70;;;;;;;8.32;80.20;98843.38;5033617;28;20571;-36
2022/11/24 06:23:56;;;;;;;28.95;12.77;;;;;;;8.96;78.20;98852.19;5033150;28;20045;-36
2022/11/24 06:26:21;;;;;;;23.70;12.85;;;;;;;9.43;78.34;98845.75;5033562;28;20041;-36
2022/11/24 06:28:47;;;;;;;27.73;12.82;;;;;;;9.25;78.50;98854.44;5033337;28;20033;-36
2022/11/24 06:31:12;;;;;;;26.38;12.77;;;;;;;9.15;78.29;98852.28;5033338;28;20025;-36
2022/11/24 06:33:37;;;;;;;23.20;12.85;;;;;;;9.40;77.70;98854.94;5033463;28;20470;-37
2022/11/24 06:36:06;;;;;;;28.13;12.68;;;;;;;9.37;79.23;98860.69;5032261;28;20029;-37
2022/11/24 06:38:33;;;;;;;29.58;13.25;;;;;;;9.59;78.88;98855.78;5032476;28;20121;-38
2022/11/24 06:41:06;;;;;;;27.17;13.98;;;;;;;9.75;76.94;98855.25;5032183;28;20430;-36
2022/11/24 06:43:33;;;;;;;21.48;12.35;;;;;;;9.88;76.28;98858.78;5032610;28;20035;-37
2022/11/24 06:45:59;;;;;;;31.75;13.85;;;;;;;10.20;76.61;98863.97;5032519;28;20017;-37
2022/11/24 06:48:25;;;;;;;25.52;12.88;;;;;;;10.45;74.91;98863.91;5032814;28;20026;-37
2022/11/24 06:50:52;;;;;;;29.20;14.45;;;;;;;10.67;74.16;98866.91;5032982;28;20080;-36
2022/11/24 06:53:18;;;;;;;31.95;14.40;;;;;;;10.61;74.46;98863.28;5032931;28;20512;-36
2022/11/24 06:55:44;;;;;;;26.35;13.00;;;;;;;11.02;73.51;98844.91;5032274;28;20052;-37
2022/11/24 06:58:10;;;;;;;23.50;12.73;;;;;;;11.16;73.02;98867.63;5032805;28;20021;-37
2022/11/24 07:00:36;;;;;;;30.02;13.60;;;;;;;11.51;70.73;98878.31;5033136;28;20029;-38
2022/11/24 07:03:01;;;;;;;23.35;12.63;;;;;;;11.95;71.77;98874.53;5032886;28;20453;-37
2022/11/24 07:05:27;;;;;;;30.77;12.50;;;;;;;13.28;68.22;98864.53;5032881;28;20688;-37
2022/11/24 07:07:52;;;;;;;17.33;9.13;;;;;;;13.20;65.32;98864.94;5032592;28;20029;-37
2022/11/24 07:10:18;;;;;;;18.42;7.03;;;;;;;13.20;63.17;98862.25;5032573;28;20049;-38
2022/11/24 07:12:43;;;;;;;14.55;6.50;;;;;;;13.67;60.80;98864.63;5033198;28;20068;-38
2022/11/24 07:15:10;;;;;;;11.20;5.50;;;;;;;14.08;60.09;98873.22;5032950;28;20021;-38
2022/11/24 07:17:36;;;;;;;12.73;5.65;;;;;;;14.41;57.75;98868.81;5032565;28;20025;-37
2022/11/24 07:20:04;;;;;;;12.48;5.97;;;;;;;14.34;58.98;98873.56;5033086;28;20029;-36
2022/11/24 07:22:29;;;;;;;9.10;5.70;;;;;;;14.83;56.92;98878.97;5032738;28;20037;-38
2022/11/24 07:24:55;;;;;;;9.00;5.40;;;;;;;15.88;54.28;98874.19;5032175;28;20045;-37
2022/11/24 07:27:20;;;;;;;13.93;5.57;;;;;;;16.15;51.73;98874.88;5032712;28;20108;-37
2022/11/24 07:29:45;;;;;;;10.90;5.75;;;;;;;15.76;52.82;98882.44;5032370;28;20504;-38
2022/11/24 07:32:11;;;;;;;15.30;5.60;;;;;;;15.70;51.92;98886.13;5032397;28;20025;-38
2022/11/24 07:34:36;;;;;;;11.95;7.30;;;;;;;15.54;53.40;98877.97;5032617;28;20083;-37
2022/11/24 07:37:02;;;;;;;15.93;8.20;;;;;;;15.03;54.82;98885.56;5032344;28;20013;-37
2022/11/24 07:39:27;;;;;;;19.30;9.80;;;;;;;14.81;55.08;98877.56;5032313;28;20409;-36
2022/11/24 07:41:52;;;;;;;17.70;7.07;;;;;;;14.78;56.12;98881.56;5032400;28;20025;-37
2022/11/24 07:44:18;;;;;;;11.23;6.05;;;;;;;14.86;55.45;98878.44;5032193;28;20017;-37
2022/11/24 07:46:43;;;;;;;10.65;5.57;;;;;;;14.96;54.78;98883.09;5032107;28;20022;-37
2022/11/24 07:49:09;;;;;;;14.85;5.45;;;;;;;14.78;55.47;98873.53;5031087;28;20036;-44
2022/11/24 07:51:35;;;;;;;14.93;5.88;;;;;;;14.79;55.12;98875.16;5032119;28;20025;-43
2022/11/24 07:54:01;;;;;;;12.80;5.35;;;;;;;15.39;54.32;98867.13;5031798;28;20469;-44
2022/11/24 07:56:26;;;;;;;12.52;5.07;;;;;;;15.70;52.76;98875.38;5031438;28;20028;-44
2022/11/24 07:58:52;;;;;;;11.02;4.82;;;;;;;16.13;51.81;98860.13;5031727;28;20112;-44
2022/11/24 08:01:17;;;;;;;10.73;5.25;;;;;;;16.79;50.09;98868.41;5031940;28;20025;-47
2022/11/24 08:03:44;;;;;;;10.68;4.90;;;;;;;17.14;49.05;98869.56;5032077;28;20025;-43
2022/11/24 08:06:11;;;;;;;7.43;4.45;;;;;;;17.36;48.84;98871.16;5030616;28;20052;-45
2022/11/24 08:08:36;;;;;;;12.80;6.35;;;;;;;17.18;49.94;98878.69;5029713;28;20036;-44
2022/11/24 08:11:11;;;;;;;13.05;5.35;;;;;;;17.96;47.18;98874.88;5029834;28;20029;-44
2022/11/24 08:13:37;;;;;;;8.63;4.72;;;;;;;17.94;47.53;98874.34;5029935;28;20026;-44
2022/11/24 08:16:05;;;;;;;10.65;5.25;;;;;;;18.26;47.50;98881.28;5030556;28;20044;-45
2022/11/24 08:18:30;;;;;;;18.00;5.72;;;;;;;18.47;46.47;98883.88;5030417;28;20484;-45
2022/11/24 08:20:59;;;;;;;13.23;4.90;;;;;;;19.20;45.13;98863.53;5031245;28;20025;-42
2022/11/24 08:23:25;;;;;;;12.57;5.60;;;;;;;19.50;44.80;98878.66;5031491;28;20045;-44
2022/11/24 08:25:50;;;;;;;14.38;5.30;;;;;;;19.90;43.55;98876.69;5031860;28;20029;-47
2022/11/24 08:28:16;;;;;;;11.48;5.20;;;;;;;20.34;43.04;98878.38;5031390;28;20390;-43
2022/11/24 08:30:41;;;;;;;9.95;5.40;;;;;;;20.70;41.92;98875.22;5031420;28;20108;-44
2022/11/24 08:33:07;;;;;;;10.52;5.00;;;;;;;21.03;42.00;98878.00;5031415;28;20156;-43
2022/11/24 08:35:36;;;;;;;10.13;4.60;;;;;;;21.27;40.82;98869.81;5031306;28;20026;-44
2022/11/24 08:38:02;;;;;;;;;;;;;;;21.65;39.46;98872.44;5031854;28;20032;-43
2022/11/24 08:40:27;;;;;;;13.10;6.15;;;;;;;21.01;40.83;98864.78;5031365;28;19954;-43
2022/11/24 08:42:57;;;;;;;11.73;4.90;;;;;;;21.27;40.13;98854.38;5030861;28;20037;-45
2022/11/24 08:45:22;;;;;;;;;;;;;;;21.65;39.53;98859.72;5031928;28;20024;-45
2022/11/24 08:47:55;;;;;;;5.90;4.20;;;;;;;21.61;40.08;98866.81;5031005;28;19909;-44
2022/11/24 08:50:22;;;;;;;8.82;4.70;;;;;;;21.61;39.86;98866.81;5030787;28;20026;-42
2022/11/24 08:52:50;;;;;;;10.73;4.47;;;;;;;21.55;39.81;98865.31;5031151;28;20418;-43
2022/11/24 08:55:15;;;;;;;7.93;4.15;;;;;;;21.03;40.75;98869.91;5031124;28;20456;-43
2022/11/24 08:57:41;;;;;;;7.65;4.10;;;;;;;20.59;41.08;98873.72;5030813;28;20458;-44
2022/11/24 09:00:07;;;;;;;6.55;4.05;;;;;;;20.61;41.84;98863.47;5031009;28;20033;-44
2022/11/24 09:02:32;;;;;;;6.47;3.70;;;;;;;20.60;40.42;98862.66;5030859;28;20357;-43
2022/11/24 09:04:58;;;;;;;5.75;4.05;;;;;;;21.11;39.41;98857.59;5030866;28;20022;-43
2022/11/24 09:07:23;;;;;;;5.57;3.55;;;;;;;21.32;39.02;98858.06;5031056;28;20025;-42
2022/11/24 09:09:48;;;;;;;8.50;4.40;;;;;;;21.04;39.67;98856.09;5030744;28;20028;-42
2022/11/24 09:12:14;;;;;;;6.35;4.60;;;;;;;20.80;41.03;98861.56;5030575;28;20083;-42
2022/11/24 09:14:39;;;;;;;7.13;3.78;;;;;;;21.03;39.89;98857.16;5030911;28;20393;-43
2022/11/24 09:17:05;;;;;;;9.00;4.53;;;;;;;21.11;39.91;98852.19;5030099;28;20477;-43
2022/11/24 09:19:30;;;;;;;6.10;4.50;;;;;;;21.00;40.22;98848.84;5030505;28;20379;-43
2022/11/24 09:21:56;;;;;;;7.93;4.07;;;;;;;20.65;40.08;98849.06;5030451;28;20372;-42
2022/11/24 09:24:21;;;;;;;6.80;3.70;;;;;;;20.89;39.95;98849.00;5030197;28;20052;-43
2022/11/24 09:26:47;;;;;;;7.78;4.10;;;;;;;20.72;40.87;98845.22;5030469;28;20109;-43
2022/11/24 09:29:29;;;;;;;13.68;4.40;;;;;;;20.68;40.61;98850.41;5030370;28;20033;-44
2022/11/24 09:31:54;;;;;;;8.85;3.78;;;;;;;20.96;39.87;98842.41;5029262;28;20021;-42
2022/11/24 09:34:19;;;;;;;7.47;4.18;;;;;;;21.18;39.76;98844.50;5030324;28;20029;-43
2022/11/24 09:36:45;;;;;;;6.88;4.05;;;;;;;20.91;41.02;98840.59;5030475;28;20025;-45
2022/11/24 09:39:10;;;;;;;7.53;3.50;;;;;;;20.43;40.80;98838.00;5030571;28;20021;-42
2022/11/24 09:41:48;;;;;;;8.68;3.38;;;;;;;20.61;40.89;98841.84;5030593;28;20026;-43
2022/11/24 09:44:38;;;;;;;7.78;3.28;;;;;;;20.93;40.76;98829.50;5030699;28;20021;-43
2022/11/24 09:47:15;;;;;;;8.73;3.97;;;;;;;21.22;40.34;98835.50;5030471;28;20029;-44
2022/11/24 09:49:47;;;;;;;7.05;3.45;;;;;;;20.48;40.41;98829.81;5030212;28;20100;-43
2022/11/24 09:52:18;;;;;;;5.50;3.13;;;;;;;20.46;40.46;98826.59;5030329;28;20029;-41
2022/11/24 09:54:54;;;;;;;6.18;3.00;;;;;;;20.06;41.20;98820.63;5030647;28;20025;-41
2022/11/24 09:57:56;;;;;;;3.92;2.88;;;;;;;20.79;40.53;98818.59;5030560;28;20022;-43
2022/11/24 10:00:27;;;;;;;6.82;2.97;;;;;;;20.35;40.82;98817.03;5029766;28;20389;-42
2022/11/24 10:03:33;;;;;;;4.43;2.65;;;;;;;20.70;40.28;98815.75;5013600;28;20038;-42
2022/11/24 10:06:03;;;;;;;3.58;2.70;;;;;;;20.70;40.16;98808.44;5028576;28;20053;-45
2022/11/24 10:08:44;;;;;;;3.53;2.42;;;;;;;20.64;40.12;98808.84;5030291;28;20022;-44
2022/11/24 10:11:13;;;;;;;3.55;2.55;;;;;;;20.90;38.62;98806.53;5030360;28;20053;-43
2022/11/24 10:14:17;;;;;;;2.95;2.40;;;;;;;21.06;38.99;98812.53;5030184;28;20018;-43
2022/11/24 10:16:59;;;;;;;3.58;2.58;;;;;;;21.06;38.17;98805.19;5030108;28;20038;-44
2022/11/24 10:19:27;;;;;;;5.30;4.15;;;;;;;20.69;38.39;98800.63;5030038;28;20029;-44
2022/11/24 10:22:14;;;;;;;7.38;4.07;;;;;;;20.89;38.35;98802.22;5029925;28;20057;-41
2022/11/24 10:25:16;;;;;;;4.88;2.40;;;;;;;20.34;39.54;98799.22;5029861;28;20053;-44
2022/11/24 10:27:45;;;;;;;4.93;2.70;;;;;;;20.16;40.38;98809.69;5029946;28;20025;-43
2022/11/24 10:30:15;;;;;;;4.63;2.80;;;;;;;19.81;40.71;98802.81;5031794;28;20025;-44
2022/11/24 10:32:45;;;;;;;5.82;2.33;;;;;;;19.92;40.45;98804.31;5033423;28;20032;-42
2022/11/24 10:35:21;;;;;;;4.35;2.60;;;;;;;20.15;39.76;98800.00;5033617;28;20029;-42
2022/11/24 10:38:19;;;;;;;3.47;2.25;;;;;;;20.08;39.85;98802.22;5033387;28;20026;-41
2022/11/24 10:40:56;;;;;;;3.42;2.20;;;;;;;19.98;40.38;98795.06;5024022;28;20041;-43
2022/11/24 10:43:21;;;;;;;3.33;1.90;;;;;;;19.76;40.64;98800.19;5033078;28;20041;-43
2022/11/24 10:45:47;;;;;;;2.72;2.08;;;;;;;19.35;40.50;98809.47;5033282;28;20394;-42
2022/11/24 10:48:23;;;;;;;5.78;2.08;;;;;;;19.19;40.45;98797.19;5033457;28;20025;-43
2022/11/24 10:50:51;;;;;;;3.38;1.88;;;;;;;19.50;39.93;98798.53;5033279;28;20116;-43
2022/11/24 10:53:28;;;;;;;3.67;1.67;;;;;;;19.76;39.40;98798.28;5033465;28;20500;-43
2022/11/24 10:55:53;;;;;;;2.85;1.80;;;;;;;20.00;39.25;98800.19;5033035;28;20296;-43
2022/11/24 10:58:21;;;;;;;3.38;1.95;;;;;;;20.07;38.94;98790.63;5033097;28;20026;-43
2022/11/24 11:00:46;;;;;;;5.22;2.38;;;;;;;20.41;37.92;98796.94;5033200;28;20470;-45
2022/11/24 11:03:18;;;;;;;3.92;1.92;;;;;;;19.56;39.40;98795.78;5033049;28;20032;-41
2022/11/24 11:05:55;;;;;;;4.40;1.80;;;;;;;19.46;39.14;98800.19;5032966;28;20500;-42
2022/11/24 11:08:29;;;;;;;3.67;1.67;;;;;;;19.75;39.91;98799.38;5033133;28;20102;-43
2022/11/24 11:11:29;;;;;;;4.10;2.00;;;;;;;19.28;39.75;98796.28;5033406;28;20052;-44
2022/11/24 11:14:00;;;;;;;5.75;2.70;;;;;;;19.29;40.09;98795.22;5021501;28;20042;-42
2022/11/24 11:16:38;;;;;;;4.25;2.30;;;;;;;19.67;40.25;98802.69;5032779;28;20504;-43
2022/11/24 11:19:25;;;;;;;5.80;2.80;;;;;;;19.77;39.70;98801.78;5032750;28;20030;-44
2022/11/24 11:22:03;;;;;;;7.82;2.45;;;;;;;19.95;40.00;98797.53;5032821;28;20029;-42
2022/11/24 11:24:28;;;;;;;11.73;2.60;;;;;;;20.47;38.91;98788.50;5032510;28;20501;-43
2022/11/24 11:27:02;;;;;;;4.20;2.40;;;;;;;20.14;39.37;98805.69;5033260;28;20107;-43
2022/11/24 11:29:29;;;;;;;22.23;2.60;;;;;;;19.24;40.94;98802.53;5032578;28;20025;-42
2022/11/24 11:32:15;;;;;;;7.20;2.70;;;;;;;19.17;41.39;98797.47;5032487;28;20098;-42
2022/11/24 11:34:41;;;;;;;3.38;2.15;;;;;;;19.53;40.39;98794.44;5032651;28;20029;-43